Time;durP1;ratioP1;P1;durP2;ratioP2;P2;SDS_P1;SDS_P2;PMS_P1;PMS_P2;Temp;Humidity;BMP_temperature;BMP_pressure;BME280_temperature;BME280_humidity;BME280_pressure;Samples;Min_cycle;Max_cycle;Signal;HPM_P1;HPM_P2
2023/02/27 00:01:13;;;;;;;;;;;19.20;64.90;;;;;;1810459;78;20537;-81
2023/02/27 00:03:43;;;;;;;;;;;19.20;64.60;;;;;;1811595;78;20691;-81
2023/02/27 00:06:16;;;;;;;;;;;19.20;64.60;;;;;;1783957;78;20560;-79
2023/02/27 00:08:46;;;;;;;;;;;19.20;65.40;;;;;;1807798;78;20166;-81
2023/02/27 00:11:16;;;;;;;;;;;19.30;65.10;;;;;;1815477;77;20467;-81
2023/02/27 00:13:46;;;;;;;;;;;19.30;64.70;;;;;;1833084;78;20198;-81
2023/02/27 00:16:16;;;;;;;;;;;19.30;64.20;;;;;;1832436;78;20190;-80
2023/02/27 00:18:46;;;;;;;;;;;19.30;65.00;;;;;;1836734;78;20211;-80
2023/02/27 00:21:16;;;;;;;;;;;19.40;64.50;;;;;;1831445;76;20487;-80
2023/02/27 00:23:45;;;;;;;;;;;19.40;64.30;;;;;;1814607;77;20177;-80
2023/02/27 00:26:15;;;;;;;;;;;19.40;64.10;;;;;;1788900;79;20182;-81
2023/02/27 00:28:48;;;;;;;;;;;19.50;63.90;;;;;;1786851;78;20364;-80
2023/02/27 00:31:20;;;;;;;;;;;19.50;63.70;;;;;;1835373;77;20254;-80
2023/02/27 00:33:51;;;;;;;;;;;19.50;63.50;;;;;;1835341;77;20332;-79
2023/02/27 00:36:24;;;;;;;;;;;19.50;63.40;;;;;;1834807;77;20172;-83
2023/02/27 00:38:54;;;;;;;;;;;19.50;63.10;;;;;;1815557;78;20235;-73
2023/02/27 00:41:24;;;;;;;;;;;19.50;63.10;;;;;;1842010;76;20202;-71
2023/02/27 00:43:54;;;;;;;;;;;19.60;63.10;;;;;;1868837;76;20179;-72
2023/02/27 00:46:24;;;;;;;;;;;19.50;63.40;;;;;;1847609;76;20192;-72
2023/02/27 00:48:55;;;;;;;;;;;19.50;62.90;;;;;;1827391;76;20190;-71
2023/02/27 00:51:25;;;;;;;;;;;19.50;62.80;;;;;;1835960;76;20487;-71
2023/02/27 00:53:55;;;;;;;;;;;19.60;63.20;;;;;;1850886;76;20232;-71
2023/02/27 00:56:25;;;;;;;;;;;19.60;62.90;;;;;;1840841;76;20173;-72
2023/02/27 00:58:56;;;;;;;;;;;19.70;62.30;;;;;;1840459;78;20345;-72
2023/02/27 01:01:26;;;;;;;;;;;19.80;61.90;;;;;;1836378;76;20669;-72
2023/02/27 01:03:59;;;;;;;;;;;19.80;61.40;;;;;;1838184;78;20230;-68
2023/02/27 01:06:30;;;;;;;;;;;19.90;61.70;;;;;;1829973;76;20201;-70
2023/02/27 01:09:01;;;;;;;;;;;19.90;61.30;;;;;;1834575;76;20242;-69
2023/02/27 01:11:32;;;;;;;;;;;20.00;61.30;;;;;;1835130;76;20543;-71
2023/02/27 01:14:04;;;;;;;;;;;20.10;60.60;;;;;;1829738;76;20245;-70
2023/02/27 01:16:35;;;;;;;;;;;20.20;59.90;;;;;;1833588;76;20531;-72
2023/02/27 01:19:05;;;;;;;;;;;20.30;60.30;;;;;;1834876;78;20178;-71
2023/02/27 01:21:40;;;;;;;;;;;20.40;58.70;;;;;;1829209;76;20228;-70
2023/02/27 01:24:13;;;;;;;;;;;20.50;58.80;;;;;;1831659;76;20317;-71
2023/02/27 01:26:43;;;;;;;;;;;20.50;58.00;;;;;;1832816;76;20231;-71
2023/02/27 01:29:14;;;;;;;;;;;20.50;57.50;;;;;;1832892;76;20337;-70
2023/02/27 01:31:44;;;;;;;;;;;20.50;58.60;;;;;;1832083;78;20261;-70
2023/02/27 01:34:14;;;;;;;;;;;20.50;57.00;;;;;;1825819;76;20258;-70
2023/02/27 01:36:44;;;;;;;;;;;20.50;57.70;;;;;;1836127;76;20659;-70
2023/02/27 01:39:14;;;;;;;;;;;20.50;57.00;;;;;;1832851;78;20262;-69
2023/02/27 01:41:46;;;;;;;;;;;20.50;56.60;;;;;;1836106;76;20624;-70
2023/02/27 01:44:17;;;;;;;;;;;20.60;56.00;;;;;;1834865;76;20330;-70
2023/02/27 01:46:48;;;;;;;;;;;20.60;56.00;;;;;;1832905;76;20267;-70
2023/02/27 01:49:19;;;;;;;;;;;20.70;57.10;;;;;;1836703;76;20700;-70
2023/02/27 01:51:55;;;;;;;;;;;20.80;55.20;;;;;;1826394;78;20213;-70
2023/02/27 01:54:26;;;;;;;;;;;20.90;54.10;;;;;;1835251;76;20181;-71
2023/02/27 01:56:57;;;;;;;;;;;20.90;54.50;;;;;;1849612;76;20203;-71
2023/02/27 01:59:27;;;;;;;;;;;20.90;52.90;;;;;;1835787;76;20311;-71
2023/02/27 02:01:58;;;;;;;;;;;21.00;53.20;;;;;;1833477;76;20170;-71
2023/02/27 02:04:29;;;;;;;;;;;21.00;52.70;;;;;;1834584;78;20344;-70
2023/02/27 02:07:00;;;;;;;;;;;21.10;51.80;;;;;;1826627;77;20446;-70
2023/02/27 02:09:32;;;;;;;;;;;21.20;50.80;;;;;;1835458;77;20206;-71
2023/02/27 02:12:02;;;;;;;;;;;21.30;50.00;;;;;;1826348;77;20182;-70
2023/02/27 02:14:32;;;;;;;;;;;21.30;50.00;;;;;;1829969;76;20261;-70
2023/02/27 02:17:22;;;;;;;;;;;21.30;48.50;;;;;;1839437;77;20610;-70
2023/02/27 02:19:57;;;;;;;;;;;21.30;48.80;;;;;;1811065;77;20233;-71
2023/02/27 02:22:44;;;;;;;;;;;21.40;49.10;;;;;;1806678;77;20332;-69
2023/02/27 02:25:38;;;;;;;;;;;21.40;49.40;;;;;;1821880;77;20278;-69
2023/02/27 02:28:12;;;;;;;;;;;21.40;49.60;;;;;;1836120;76;20289;-69
2023/02/27 02:30:43;;;;;;;;;;;21.40;50.40;;;;;;1826969;78;20265;-69
2023/02/27 02:33:32;;;;;;;;;;;21.40;50.50;;;;;;1826449;78;20391;-69
2023/02/27 02:36:11;;;;;;;;;;;21.50;50.80;;;;;;1825756;78;20749;-69
2023/02/27 02:38:59;;;;;;;;;;;21.60;51.10;;;;;;1847247;78;20129;-70
2023/02/27 02:41:46;;;;;;;;;;;21.60;51.30;;;;;;1821894;78;20679;-69
2023/02/27 02:44:35;;;;;;;;;;;21.70;51.50;;;;;;1825936;76;20171;-69
2023/02/27 02:47:06;;;;;;;;;;;21.80;51.60;;;;;;1834931;76;20237;-68
2023/02/27 02:49:49;;;;;;;;;;;21.90;51.60;;;;;;1831327;77;20201;-69
2023/02/27 02:55:10;;;;;;;;;;;22.00;51.80;;;;;;1820481;77;20200;-69
2023/02/27 02:57:48;;;;;;;;;;;22.00;51.50;;;;;;1825145;77;20634;-70
2023/02/27 03:00:19;;;;;;;;;;;22.10;51.50;;;;;;1816335;77;20244;-70
2023/02/27 03:02:51;;;;;;;;;;;22.20;51.90;;;;;;1791055;79;20268;-69
2023/02/27 03:05:25;;;;;;;;;;;22.30;51.50;;;;;;1805218;78;20229;-69
2023/02/27 03:07:58;;;;;;;;;;;22.40;51.40;;;;;;1804953;77;20251;-69
2023/02/27 03:10:32;;;;;;;;;;;22.50;51.30;;;;;;1827557;77;20168;-70
2023/02/27 03:13:03;;;;;;;;;;;22.60;51.50;;;;;;1800641;77;20323;-70
2023/02/27 03:15:41;;;;;;;;;;;22.70;51.00;;;;;;1806647;78;20199;-70
2023/02/27 03:18:17;;;;;;;;;;;22.80;51.10;;;;;;1830224;77;20362;-70
2023/02/27 03:20:46;;;;;;;;;;;23.00;50.50;;;;;;1815435;77;20187;-70
2023/02/27 03:23:24;;;;;;;;;;;23.00;50.50;;;;;;1809027;77;20308;-72
2023/02/27 03:25:55;;;;;;;;;;;23.10;50.90;;;;;;1810284;77;20550;-71
2023/02/27 03:28:32;;;;;;;;;;;23.20;50.90;;;;;;1822398;77;20264;-71
2023/02/27 03:31:00;;;;;;;;;;;23.40;51.00;;;;;;1806341;77;20243;-69
2023/02/27 03:33:35;;;;;;;;;;;23.60;50.60;;;;;;1807045;77;20220;-72
2023/02/27 03:36:17;;;;;;;;;;;23.70;50.00;;;;;;1814712;77;20196;-70
2023/02/27 03:38:48;;;;;;;;;;;23.90;49.00;;;;;;1804821;77;20233;-71
2023/02/27 03:41:20;;;;;;;;;;;24.00;48.90;;;;;;1776745;79;20216;-70
2023/02/27 03:43:54;;;;;;;;;;;24.10;49.40;;;;;;1802324;77;20215;-70
2023/02/27 03:46:26;;;;;;;;;;;24.20;50.40;;;;;;1774952;77;20269;-70
2023/02/27 03:48:59;;;;;;;;;;;24.40;49.00;;;;;;1798675;78;20253;-69
2023/02/27 03:51:30;;;;;;;;;;;24.50;48.00;;;;;;1794214;78;20202;-68
2023/02/27 03:54:09;;;;;;;;;;;24.60;49.20;;;;;;1779083;78;20313;-72
2023/02/27 03:56:42;;;;;;;;;;;24.70;47.30;;;;;;1785687;78;20272;-71
2023/02/27 03:59:12;;;;;;;;;;;24.80;47.20;;;;;;1797803;78;20674;-70
2023/02/27 04:01:42;;;;;;;;;;;24.80;47.20;;;;;;1816162;77;20688;-70
2023/02/27 04:04:13;;;;;;;;;;;25.00;47.10;;;;;;1801655;78;20315;-70
2023/02/27 04:09:40;;;;;;;;;;;25.10;47.10;;;;;;1826155;77;20259;-71
2023/02/27 04:12:11;;;;;;;;;;;25.20;47.40;;;;;;1811805;77;20197;-70
2023/02/27 04:14:42;;;;;;;;;;;25.30;46.80;;;;;;1799766;78;20292;-70
2023/02/27 04:17:16;;;;;;;;;;;25.40;47.30;;;;;;1791102;78;20212;-72
2023/02/27 04:26:10;;;;;;;;;;;25.80;46.90;;;;;;1825221;77;20215;-71
2023/02/27 04:28:45;;;;;;;;;;;25.90;46.40;;;;;;1824202;77;20178;-71
2023/02/27 04:31:16;;;;;;;;;;;26.00;45.70;;;;;;1844561;77;20201;-72
2023/02/27 04:33:47;;;;;;;;;;;26.10;46.10;;;;;;1823503;77;20303;-72
2023/02/27 04:36:28;;;;;;;;;;;26.20;45.40;;;;;;1828348;77;20673;-72
2023/02/27 04:39:03;;;;;;;;;;;26.20;45.40;;;;;;1797441;78;20293;-71
2023/02/27 04:41:41;;;;;;;;;;;26.20;45.70;;;;;;1797359;78;20291;-71
2023/02/27 04:44:11;;;;;;;;;;;26.30;45.10;;;;;;1796583;78;20350;-71
2023/02/27 04:46:44;;;;;;;;;;;26.40;44.70;;;;;;1795528;78;20240;-72
2023/02/27 04:49:24;;;;;;;;;;;26.40;45.10;;;;;;1797028;78;20195;-72
2023/02/27 04:51:55;;;;;;;;;;;26.50;45.50;;;;;;1823611;77;20554;-72
2023/02/27 04:54:27;;;;;;;;;;;26.60;44.80;;;;;;1804249;78;20210;-72
2023/02/27 04:56:59;;;;;;;;;;;26.60;45.30;;;;;;1828596;77;20252;-71
2023/02/27 04:59:30;;;;;;;;;;;26.70;45.30;;;;;;1806670;78;20181;-70
2023/02/27 05:02:02;;;;;;;;;;;26.80;45.80;;;;;;1802511;78;20192;-71
2023/02/27 05:04:34;;;;;;;;;;;26.80;46.10;;;;;;1810196;78;20328;-70
2023/02/27 05:07:12;;;;;;;;;;;26.90;44.70;;;;;;1803256;78;20233;-72
2023/02/27 05:09:45;;;;;;;;;;;27.00;45.10;;;;;;1792170;78;20195;-71
2023/02/27 05:12:35;;;;;;;;;;;27.00;44.40;;;;;;1801634;78;20365;-70
2023/02/27 05:15:24;;;;;;;;;;;27.00;44.40;;;;;;1885319;74;20256;-71
2023/02/27 05:17:55;;;;;;;;;;;27.00;44.10;;;;;;1876090;75;20260;-70
2023/02/27 05:20:26;;;;;;;;;;;27.00;44.90;;;;;;1863867;76;20449;-70
2023/02/27 05:22:58;;;;;;;;;;;27.10;44.80;;;;;;1881321;75;20181;-71
2023/02/27 05:25:29;;;;;;;;;;;27.10;45.40;;;;;;1878607;75;20182;-71
2023/02/27 05:28:03;;;;;;;;;;;27.20;45.80;;;;;;1881589;75;20186;-71
2023/02/27 05:30:35;;;;;;;;;;;27.20;45.00;;;;;;1877923;75;20707;-71
2023/02/27 05:33:18;;;;;;;;;;;27.30;46.20;;;;;;1876020;75;20186;-71
2023/02/27 05:36:00;;;;;;;;;;;27.30;45.10;;;;;;1881791;75;20291;-71
2023/02/27 05:38:37;;;;;;;;;;;27.40;45.30;;;;;;1904186;73;20252;-71
2023/02/27 05:41:14;;;;;;;;;;;27.50;44.90;;;;;;1876864;75;20167;-71
2023/02/27 05:43:46;;;;;;;;;;;27.60;44.50;;;;;;1878791;73;20215;-72
2023/02/27 05:46:18;;;;;;;;;;;27.60;44.40;;;;;;1893416;73;20239;-71
2023/02/27 05:48:50;;;;;;;;;;;27.60;44.20;;;;;;1909445;74;20251;-71
2023/02/27 05:51:23;;;;;;;;;;;27.60;44.10;;;;;;1881623;76;20236;-70
2023/02/27 05:53:55;;;;;;;;;;;27.70;44.50;;;;;;1886088;76;20234;-70
2023/02/27 05:56:26;;;;;;;;;;;27.80;44.10;;;;;;1889342;75;20178;-70
2023/02/27 05:59:02;;;;;;;;;;;27.80;44.40;;;;;;1874524;76;20260;-71
2023/02/27 06:01:34;;;;;;;;;;;27.80;44.30;;;;;;1885446;75;20418;-71
2023/02/27 06:04:04;;;;;;;;;;;27.80;43.90;;;;;;1888377;75;20222;-71
2023/02/27 06:06:35;;;;;;;;;;;27.80;44.60;;;;;;1886501;75;20197;-70
2023/02/27 06:09:06;;;;;;;;;;;27.80;44.10;;;;;;1885108;75;20270;-71
2023/02/27 06:11:37;;;;;;;;;;;27.80;44.00;;;;;;1880666;75;20214;-71
2023/02/27 06:14:06;;;;;;;;;;;27.90;45.10;;;;;;1900096;75;20199;-70
2023/02/27 06:16:37;;;;;;;;;;;27.90;44.20;;;;;;1886764;74;20165;-71
2023/02/27 06:19:10;;;;;;;;;;;27.90;44.90;;;;;;1878749;75;20201;-71
2023/02/27 06:21:41;;;;;;;;;;;27.90;44.60;;;;;;1877645;74;20176;-71
2023/02/27 06:24:11;;;;;;;;;;;27.90;44.10;;;;;;1881048;75;20597;-71
2023/02/27 06:26:41;;;;;;;;;;;27.90;44.10;;;;;;1817793;78;20182;-71
2023/02/27 06:29:11;;;;;;;;;;;27.90;44.30;;;;;;1819002;77;20198;-72
2023/02/27 06:31:41;;;;;;;;;;;27.90;46.10;;;;;;1857967;76;20551;-71
2023/02/27 06:34:12;;;;;;;;;;;28.00;44.70;;;;;;1909733;73;20185;-72
2023/02/27 06:36:42;;;;;;;;;;;28.10;44.80;;;;;;1885575;75;20173;-72
2023/02/27 06:39:13;;;;;;;;;;;28.10;44.70;;;;;;1905133;75;20173;-71
2023/02/27 06:41:45;;;;;;;;;;;28.10;45.60;;;;;;1890331;75;20551;-71
2023/02/27 06:44:18;;;;;;;;;;;28.20;45.70;;;;;;1814040;77;20191;-71
2023/02/27 06:46:48;;;;;;;;;;;28.20;44.50;;;;;;1896953;75;20207;-71
2023/02/27 06:49:19;;;;;;;;;;;28.30;43.90;;;;;;1885984;73;20240;-71
2023/02/27 06:51:50;;;;;;;;;;;28.30;44.40;;;;;;1912547;75;20177;-71
2023/02/27 06:54:20;;;;;;;;;;;28.30;44.20;;;;;;1880414;76;20179;-72
2023/02/27 06:56:50;;;;;;;;;;;28.30;44.70;;;;;;1899394;75;20177;-70
2023/02/27 06:59:21;;;;;;;;;;;28.30;44.80;;;;;;1856196;76;20238;-70
2023/02/27 07:01:51;;;;;;;;;;;28.30;44.20;;;;;;1896561;74;20177;-70
2023/02/27 07:04:22;;;;;;;;;;;28.30;44.50;;;;;;1892976;75;20188;-71
2023/02/27 07:06:52;;;;;;;;;;;28.20;44.50;;;;;;1887589;74;20170;-71
2023/02/27 07:09:23;;;;;;;;;;;28.20;44.40;;;;;;1878661;75;20489;-70
2023/02/27 07:11:54;;;;;;;;;;;28.20;45.00;;;;;;1884591;75;20223;-71
2023/02/27 07:14:25;;;;;;;;;;;28.20;45.00;;;;;;1887650;75;20433;-71
2023/02/27 07:16:55;;;;;;;;;;;28.30;46.30;;;;;;1853514;76;20467;-72
2023/02/27 07:19:35;;;;;;;;;;;;;;;;;;;;;
2023/02/27 07:22:14;;;;;;;;;;;28.30;44.80;;;;;;1820285;77;20277;-70
2023/02/27 07:24:51;;;;;;;;;;;28.30;45.00;;;;;;1820400;77;20125;-71
2023/02/27 07:27:18;;;;;;;;;;;28.30;45.10;;;;;;1835356;78;20233;-70
2023/02/27 07:29:50;;;;;;;;;;;28.30;44.70;;;;;;1858093;76;20146;-70
2023/02/27 07:32:20;;;;;;;;;;;28.30;44.90;;;;;;1835969;76;20448;-72
2023/02/27 07:38:21;;;;;;;;;;;28.30;45.00;;;;;;1917615;73;20180;-70
2023/02/27 07:40:53;;;;;;;;;;;28.30;45.00;;;;;;1918619;73;20185;-71
2023/02/27 07:43:24;;;;;;;;;;;28.30;44.90;;;;;;1928393;73;20156;-69
2023/02/27 07:45:54;;;;;;;;;;;28.30;45.20;;;;;;1904842;73;20186;-69
2023/02/27 07:48:24;;;;;;;;;;;28.30;44.80;;;;;;1916750;73;20183;-70
2023/02/27 07:50:55;;;;;;;;;;;28.30;44.90;;;;;;1918833;73;20205;-69
2023/02/27 07:53:25;;;;;;;;;;;28.30;44.90;;;;;;1912797;74;20173;-70
2023/02/27 07:55:55;;;;;;;;;;;28.20;45.20;;;;;;1901071;73;20266;-70
2023/02/27 07:58:26;;;;;;;;;;;28.20;45.00;;;;;;1927031;73;20552;-70
2023/02/27 08:03:46;;;;;;;;;;;28.10;45.40;;;;;;1797120;78;20229;-71
2023/02/27 08:06:16;;;;;;;;;;;28.10;45.70;;;;;;1817197;77;20200;-71
2023/02/27 08:08:46;;;;;;;;;;;28.10;45.80;;;;;;1788030;79;20194;-71
2023/02/27 08:11:17;;;;;;;;;;;28.20;45.80;;;;;;1823283;77;20615;-70
2023/02/27 08:13:49;;;;;;;;;;;28.10;45.10;;;;;;1820021;77;20484;-71
2023/02/27 08:16:20;;;;;;;;;;;28.10;45.40;;;;;;1819443;77;20211;-70
2023/02/27 08:18:53;;;;;;;;;;;28.10;45.60;;;;;;1840070;77;20123;-70
2023/02/27 08:21:23;;;;;;;;;;;28.10;46.00;;;;;;1817354;78;20181;-70
2023/02/27 08:23:55;;;;;;;;;;;28.10;45.60;;;;;;1809576;78;20201;-69
2023/02/27 08:26:25;;;;;;;;;;;28.10;45.50;;;;;;1816966;79;20157;-71
2023/02/27 08:28:56;;;;;;;;;;;28.10;45.40;;;;;;1798286;79;20137;-71
2023/02/27 08:31:26;;;;;;;;;;;28.10;45.30;;;;;;1807133;79;20124;-70
2023/02/27 08:33:57;;;;;;;;;;;28.20;45.50;;;;;;1808454;79;20304;-70
2023/02/27 08:36:29;;;;;;;;;;;28.20;45.40;;;;;;1807225;77;20199;-72
2023/02/27 08:38:59;;;;;;;;;;;28.20;45.60;;;;;;1822406;77;20253;-70
2023/02/27 08:41:29;;;;;;;;;;;28.20;45.90;;;;;;1842207;77;20264;-70
2023/02/27 08:43:59;;;;;;;;;;;28.20;45.60;;;;;;1839868;77;20259;-70
2023/02/27 08:46:29;;;;;;;;;;;28.20;45.50;;;;;;1856217;77;20219;-72
2023/02/27 08:48:59;;;;;;;;;;;28.10;46.00;;;;;;1840729;77;20193;-72
2023/02/27 08:51:29;;;;;;;;;;;28.10;46.00;;;;;;1823466;78;20185;-72
2023/02/27 08:53:59;;;;;;;;;;;28.10;46.10;;;;;;1834951;77;20201;-72
2023/02/27 08:56:30;;;;;;;;;;;28.20;45.90;;;;;;1815190;78;20583;-72
2023/02/27 08:59:01;;;;;;;;;;;28.20;46.00;;;;;;1818991;77;20159;-72
2023/02/27 09:01:33;;;;;;;;;;;28.20;46.20;;;;;;1833852;77;20253;-72
2023/02/27 09:04:03;;;;;;;;;;;28.20;45.80;;;;;;1837622;77;20182;-72
2023/02/27 09:06:33;;;;;;;;;;;28.10;45.80;;;;;;1830751;77;20544;-70
2023/02/27 09:09:06;;;;;;;;;;;28.10;46.00;;;;;;1833842;77;20662;-71
2023/02/27 09:11:37;;;;;;;;;;;28.10;46.10;;;;;;1840913;77;20351;-69
2023/02/27 09:14:07;;;;;;;;;;;28.10;46.00;;;;;;1816855;79;20156;-72
2023/02/27 09:16:43;;;;;;;;;;;28.00;46.70;;;;;;1828637;77;20317;-70
2023/02/27 09:19:19;;;;;;;;;;;28.00;46.20;;;;;;1839055;77;20574;-71
2023/02/27 09:21:49;;;;;;;;;;;28.00;46.40;;;;;;1837146;77;20293;-70
2023/02/27 09:24:20;;;;;;;;;;;28.00;46.40;;;;;;1840450;77;20238;-71
2023/02/27 09:26:57;;;;;;;;;;;28.00;46.20;;;;;;1843244;77;20119;-71
2023/02/27 09:29:37;;;;;;;;;;;28.00;46.50;;;;;;1837427;77;20182;-70
2023/02/27 09:32:07;;;;;;;;;;;27.90;46.50;;;;;;1834580;77;20564;-70
2023/02/27 09:34:38;;;;;;;;;;;27.90;46.40;;;;;;1835239;77;20187;-71
2023/02/27 09:37:08;;;;;;;;;;;27.90;46.80;;;;;;1835918;77;20134;-73
2023/02/27 09:39:42;;;;;;;;;;;27.80;46.70;;;;;;1838888;77;20233;-73
2023/02/27 09:42:18;;;;;;;;;;;27.80;47.10;;;;;;1840852;77;20593;-72
2023/02/27 09:44:49;;;;;;;;;;;27.80;46.90;;;;;;1814500;78;20200;-72
2023/02/27 09:47:20;;;;;;;;;;;27.80;47.20;;;;;;1812219;78;20188;-72
2023/02/27 09:50:01;;;;;;;;;;;27.80;47.10;;;;;;1811957;79;20546;-72
2023/02/27 09:52:34;;;;;;;;;;;27.70;47.70;;;;;;1818321;77;20583;-72
2023/02/27 09:55:23;;;;;;;;;;;27.70;46.90;;;;;;1824148;77;20210;-71
2023/02/27 09:58:03;;;;;;;;;;;27.70;46.90;;;;;;1826073;77;20294;-72
2023/02/27 10:00:53;;;;;;;;;;;27.60;47.50;;;;;;1823673;78;20230;-71
2023/02/27 10:03:37;;;;;;;;;;;27.60;46.70;;;;;;1839635;77;20299;-72
2023/02/27 10:06:11;;;;;;;;;;;27.50;47.10;;;;;;1829396;77;20220;-72
2023/02/27 10:08:44;;;;;;;;;;;27.50;47.60;;;;;;1829466;77;20188;-71
2023/02/27 10:11:15;;;;;;;;;;;27.50;47.80;;;;;;1828193;78;20632;-72
2023/02/27 10:13:46;;;;;;;;;;;27.40;47.40;;;;;;1821817;78;20191;-73
2023/02/27 10:16:18;;;;;;;;;;;27.50;47.60;;;;;;1818894;78;20176;-72
2023/02/27 10:18:53;;;;;;;;;;;27.40;47.70;;;;;;1830003;78;20166;-72
2023/02/27 10:21:24;;;;;;;;;;;27.40;47.60;;;;;;1815815;79;20172;-71
2023/02/27 10:24:06;;;;;;;;;;;27.40;47.60;;;;;;1821667;77;20336;-72
2023/02/27 10:26:38;;;;;;;;;;;27.40;47.90;;;;;;1828435;77;20454;-71
2023/02/27 10:29:13;;;;;;;;;;;27.40;48.20;;;;;;1815300;78;20208;-71
2023/02/27 10:31:44;;;;;;;;;;;27.30;48.10;;;;;;1823396;77;20218;-71
2023/02/27 10:34:15;;;;;;;;;;;27.30;47.80;;;;;;1824986;77;20187;-71
2023/02/27 10:36:46;;;;;;;;;;;27.30;47.80;;;;;;1824976;77;20502;-73
2023/02/27 10:39:17;;;;;;;;;;;27.30;47.80;;;;;;1814950;77;20264;-71
2023/02/27 10:41:47;;;;;;;;;;;27.30;48.40;;;;;;1829788;77;20207;-73
2023/02/27 10:44:18;;;;;;;;;;;27.20;48.40;;;;;;1823534;77;20206;-72
2023/02/27 10:46:48;;;;;;;;;;;27.20;47.60;;;;;;1827364;77;20136;-71
2023/02/27 10:49:21;;;;;;;;;;;27.20;47.80;;;;;;1826139;77;20263;-74
2023/02/27 10:52:07;;;;;;;;;;;27.10;48.30;;;;;;1826805;77;20326;-71
2023/02/27 10:54:38;;;;;;;;;;;27.10;48.60;;;;;;1826873;77;20205;-71
2023/02/27 10:57:26;;;;;;;;;;;27.10;48.80;;;;;;1810010;77;20335;-71
2023/02/27 11:00:03;;;;;;;;;;;27.10;48.70;;;;;;1807241;77;20221;-90
2023/02/27 11:02:51;;;;;;;;;;;27.00;48.60;;;;;;1836116;76;20406;-86
2023/02/27 11:05:26;;;;;;;;;;;27.00;48.60;;;;;;1875064;77;20162;-87
2023/02/27 11:07:57;;;;;;;;;;;27.00;48.80;;;;;;1859608;76;20181;-86
2023/02/27 11:10:28;;;;;;;;;;;26.90;49.00;;;;;;1842628;77;20196;-87
2023/02/27 11:12:59;;;;;;;;;;;26.90;48.80;;;;;;1814409;78;20457;-88
2023/02/27 11:15:30;;;;;;;;;;;26.90;49.00;;;;;;1813259;79;20185;-85
2023/02/27 11:18:20;;;;;;;;;;;26.90;49.20;;;;;;1839580;77;20179;-86
2023/02/27 11:29:40;;;;;;;;;;;26.80;49.20;;;;;;1768459;78;20191;-88
2023/02/27 11:32:14;;;;;;;;;;;26.80;49.20;;;;;;1826967;78;20190;-87
2023/02/27 11:34:48;;;;;;;;;;;26.80;49.40;;;;;;1812121;78;20169;-87
2023/02/27 11:37:25;;;;;;;;;;;26.70;49.50;;;;;;1825763;78;20257;-87
2023/02/27 11:40:14;;;;;;;;;;;26.70;49.40;;;;;;1833417;78;20583;-87
2023/02/27 11:42:45;;;;;;;;;;;26.60;49.60;;;;;;1812615;79;20217;-87
2023/02/27 11:45:23;;;;;;;;;;;26.60;49.70;;;;;;1827288;78;20136;-86
2023/02/27 11:47:58;;;;;;;;;;;26.60;49.80;;;;;;1821993;78;20202;-88
2023/02/27 11:53:45;;;;;;;;;;;26.60;50.00;;;;;;1826663;78;20231;-87
2023/02/27 11:56:32;;;;;;;;;;;26.60;50.10;;;;;;1826581;78;20196;-87
2023/02/27 11:59:08;;;;;;;;;;;26.50;50.00;;;;;;1826460;78;20446;-86
2023/02/27 12:01:39;;;;;;;;;;;26.50;50.00;;;;;;1826926;78;20249;-87
2023/02/27 12:04:16;;;;;;;;;;;26.50;50.10;;;;;;1799533;78;20221;-87
2023/02/27 12:06:47;;;;;;;;;;;26.50;50.10;;;;;;1759238;82;20198;-87
2023/02/27 12:09:36;;;;;;;;;;;26.50;50.30;;;;;;1725897;82;20148;-86
2023/02/27 12:12:07;;;;;;;;;;;26.40;50.40;;;;;;1726349;80;20187;-86
2023/02/27 12:14:57;;;;;;;;;;;26.40;50.40;;;;;;1727471;83;20438;-87
2023/02/27 12:17:34;;;;;;;;;;;26.40;50.60;;;;;;1763021;82;20188;-84
2023/02/27 12:20:08;;;;;;;;;;;26.40;50.60;;;;;;1754776;82;20143;-85
2023/02/27 12:22:39;;;;;;;;;;;26.40;50.70;;;;;;1804555;79;20205;-83
2023/02/27 12:25:27;;;;;;;;;;;26.30;50.60;;;;;;1817985;79;20157;-86
2023/02/27 12:28:04;;;;;;;;;;;26.30;50.70;;;;;;1793199;79;20230;-84
2023/02/27 12:30:34;;;;;;;;;;;26.30;50.90;;;;;;1793835;80;20151;-84
2023/02/27 12:33:18;;;;;;;;;;;26.20;50.90;;;;;;1761179;80;20198;-86
2023/02/27 12:35:47;;;;;;;;;;;26.20;51.30;;;;;;1821593;79;20175;-86
2023/02/27 12:38:18;;;;;;;;;;;26.20;51.70;;;;;;1830041;79;20125;-86
2023/02/27 12:40:49;;;;;;;;;;;26.10;52.50;;;;;;1818389;79;20129;-85
2023/02/27 12:43:28;;;;;;;;;;;26.00;51.70;;;;;;1813242;79;20212;-87
2023/02/27 12:45:59;;;;;;;;;;;25.90;51.70;;;;;;1810810;79;20129;-86
2023/02/27 12:48:40;;;;;;;;;;;25.90;51.70;;;;;;1808949;79;20171;-87
2023/02/27 12:51:20;;;;;;;;;;;25.90;51.60;;;;;;1808858;79;20204;-86
2023/02/27 12:53:51;;;;;;;;;;;25.90;51.60;;;;;;1811529;78;20189;-85
2023/02/27 12:56:22;;;;;;;;;;;25.90;51.60;;;;;;1819837;79;20133;-87
2023/02/27 12:59:10;;;;;;;;;;;25.80;51.50;;;;;;1793349;79;20379;-86
2023/02/27 13:01:41;;;;;;;;;;;25.80;51.60;;;;;;1762462;80;20192;-85
2023/02/27 13:04:15;;;;;;;;;;;25.80;51.70;;;;;;1785711;80;20170;-86
2023/02/27 13:06:52;;;;;;;;;;;25.70;51.70;;;;;;1780292;81;20163;-86
2023/02/27 13:09:28;;;;;;;;;;;25.70;51.80;;;;;;1754361;81;20188;-86
2023/02/27 13:11:59;;;;;;;;;;;25.70;51.90;;;;;;1778448;80;20202;-86
2023/02/27 13:14:48;;;;;;;;;;;25.70;52.10;;;;;;1780760;79;20123;-85
2023/02/27 13:17:23;;;;;;;;;;;25.70;52.00;;;;;;1778024;79;20231;-86
2023/02/27 13:19:55;;;;;;;;;;;25.70;52.00;;;;;;1747773;82;20180;-85
2023/02/27 13:22:28;;;;;;;;;;;25.70;52.00;;;;;;1778957;81;20201;-85
2023/02/27 13:25:11;;;;;;;;;;;25.70;52.00;;;;;;1747006;81;20392;-86
2023/02/27 13:28:02;;;;;;;;;;;25.70;52.00;;;;;;1768146;79;20206;-86
2023/02/27 13:30:37;;;;;;;;;;;25.60;52.10;;;;;;1762465;81;20554;-86
2023/02/27 13:33:14;;;;;;;;;;;25.60;52.10;;;;;;1775409;81;20244;-85
2023/02/27 13:35:46;;;;;;;;;;;25.60;52.10;;;;;;1776170;79;20221;-86
2023/02/27 13:38:35;;;;;;;;;;;25.60;52.20;;;;;;1777236;81;20190;-85
2023/02/27 13:41:24;;;;;;;;;;;25.60;52.20;;;;;;1748692;80;20187;-86
2023/02/27 13:43:56;;;;;;;;;;;25.50;52.20;;;;;;1778693;81;20190;-86
2023/02/27 13:46:27;;;;;;;;;;;25.50;52.20;;;;;;1778456;81;20233;-85
2023/02/27 13:52:07;;;;;;;;;;;25.50;52.20;;;;;;1768054;79;20180;-86
2023/02/27 13:54:58;;;;;;;;;;;25.50;52.20;;;;;;1758391;79;20229;-86
2023/02/27 13:57:33;;;;;;;;;;;25.50;52.20;;;;;;1783439;79;20203;-86
2023/02/27 14:00:04;;;;;;;;;;;25.50;52.20;;;;;;1768164;81;20572;-87
2023/02/27 14:05:57;;;;;;;;;;;25.50;52.30;;;;;;1769615;80;20270;-86
2023/02/27 14:08:28;;;;;;;;;;;25.50;52.40;;;;;;1765616;80;20217;-87
2023/02/27 14:11:19;;;;;;;;;;;25.50;52.40;;;;;;1765378;80;20181;-86
2023/02/27 14:13:53;;;;;;;;;;;25.50;52.40;;;;;;1766229;81;20190;-87
2023/02/27 14:16:47;;;;;;;;;;;25.50;52.40;;;;;;1767813;81;20123;-85
2023/02/27 14:19:18;;;;;;;;;;;25.50;52.40;;;;;;1751796;81;20137;-84
2023/02/27 14:22:04;;;;;;;;;;;25.50;52.40;;;;;;1714145;84;20127;-86
2023/02/27 14:24:38;;;;;;;;;;;25.50;52.40;;;;;;1726376;82;20238;-86
2023/02/27 14:27:24;;;;;;;;;;;25.50;52.50;;;;;;1771407;80;20413;-86
2023/02/27 14:29:55;;;;;;;;;;;25.50;52.50;;;;;;1682109;84;20283;-87
2023/02/27 14:32:26;;;;;;;;;;;25.50;52.50;;;;;;1721380;82;20475;-86
2023/02/27 14:34:56;;;;;;;;;;;25.40;52.50;;;;;;1756521;81;20190;-86
2023/02/27 14:37:26;;;;;;;;;;;25.40;52.50;;;;;;1759895;80;20202;-87
2023/02/27 14:40:04;;;;;;;;;;;25.40;52.60;;;;;;1761063;80;20190;-87
2023/02/27 14:42:45;;;;;;;;;;;25.40;52.60;;;;;;1715811;83;20226;-85
2023/02/27 14:45:16;;;;;;;;;;;25.40;52.60;;;;;;1754395;82;20237;-87
2023/02/27 14:47:52;;;;;;;;;;;25.40;52.70;;;;;;1736494;80;20200;-84
2023/02/27 14:50:23;;;;;;;;;;;25.30;52.80;;;;;;1763029;80;20630;-85
2023/02/27 14:56:02;;;;;;;;;;;25.30;53.00;;;;;;1756371;79;20178;-87
2023/02/27 14:58:32;;;;;;;;;;;25.20;53.10;;;;;;1766054;81;20325;-86
2023/02/27 15:01:05;;;;;;;;;;;25.10;53.10;;;;;;1763723;81;20346;-87
2023/02/27 15:03:49;;;;;;;;;;;25.20;53.40;;;;;;1721235;83;20187;-85
2023/02/27 15:06:28;;;;;;;;;;;25.10;53.50;;;;;;1763883;80;20184;-88
2023/02/27 15:09:08;;;;;;;;;;;25.10;53.60;;;;;;1752345;81;20324;-86
2023/02/27 15:11:39;;;;;;;;;;;25.00;53.60;;;;;;1749529;81;20348;-86
2023/02/27 15:14:13;;;;;;;;;;;25.00;54.20;;;;;;1751563;81;20548;-86
2023/02/27 15:16:43;;;;;;;;;;;25.00;54.10;;;;;;1749646;81;20220;-86
2023/02/27 15:19:20;;;;;;;;;;;24.90;54.30;;;;;;1754118;81;20410;-87
2023/02/27 15:21:52;;;;;;;;;;;24.90;54.60;;;;;;1761052;80;20186;-87
2023/02/27 15:24:30;;;;;;;;;;;24.80;55.00;;;;;;1767619;80;20166;-87
2023/02/27 15:27:05;;;;;;;;;;;24.80;55.50;;;;;;1765911;80;20413;-88
2023/02/27 15:29:37;;;;;;;;;;;24.80;56.00;;;;;;1767001;81;20254;-87
2023/02/27 15:32:09;;;;;;;;;;;24.70;56.30;;;;;;1769806;80;20172;-86
2023/02/27 15:34:43;;;;;;;;;;;24.70;56.50;;;;;;1767488;80;20704;-86
2023/02/27 15:40:28;;;;;;;;;;;24.60;57.10;;;;;;1756491;81;20235;-84